ΕΜΥ, Εθνική Μετεωρολογική Υπηρεσία - Δελτία Καιρού, Προγνώσεις

ΑΕΡΟΝΑΥΤΙΛΙΑ

GREEK AIRPORTS CODES

LGMG 181500Z 00000KT 9999 FEW020TCU BKN025 20/12 Q1018=

EUROPEAN AIRPORTS CODES

LFPO 182330Z 20004KT 150V240 9999 BKN042 16/14 Q1021 NOSIG=